Time;durP1;ratioP1;P1;durP2;ratioP2;P2;SDS_P1;SDS_P2;PMS_P1;PMS_P2;Temp;Humidity;BMP_temperature;BMP_pressure;BME280_temperature;BME280_humidity;BME280_pressure;Samples;Min_cycle;Max_cycle;Signal;HPM_P1;HPM_P2
2023/08/25 00:01:03;;;;;;;53.22;47.67;;;19.90;99.90;;;;;;5044544;28;20048;-53
2023/08/25 00:03:29;;;;;;;58.10;51.90;;;19.90;99.90;;;;;;5048357;28;20028;-52
2023/08/25 00:05:54;;;;;;;57.15;50.92;;;19.90;99.90;;;;;;5044659;28;20506;-52
2023/08/25 00:08:21;;;;;;;50.53;45.13;;;19.90;99.90;;;;;;5042293;28;20341;-54
2023/08/25 00:10:47;;;;;;;59.47;53.10;;;19.90;99.90;;;;;;5045143;28;20399;-53
2023/08/25 00:13:13;;;;;;;58.08;51.85;;;19.90;99.90;;;;;;5032749;28;20038;-52
2023/08/25 00:15:40;;;;;;;61.75;55.25;;;19.90;99.90;;;;;;5035873;28;21061;-51
2023/08/25 00:18:06;;;;;;;61.70;55.05;;;19.90;99.90;;;;;;5048064;28;20395;-50
2023/08/25 00:20:32;;;;;;;65.40;57.65;;;19.90;99.90;;;;;;5040637;28;20037;-52
2023/08/25 00:22:57;;;;;;;66.13;57.45;;;19.90;99.90;;;;;;5046310;28;20029;-53
2023/08/25 00:25:23;;;;;;;57.13;50.72;;;19.90;99.90;;;;;;5045869;28;20147;-53
2023/08/25 00:27:49;;;;;;;67.25;56.25;;;19.90;99.90;;;;;;5039010;28;20514;-50
2023/08/25 00:30:15;;;;;;;66.80;55.50;;;19.90;99.90;;;;;;5043846;28;20110;-51
2023/08/25 00:32:40;;;;;;;57.70;51.45;;;19.90;99.90;;;;;;5043629;28;20134;-53
2023/08/25 00:35:07;;;;;;;63.08;54.72;;;20.00;99.90;;;;;;5044980;28;20045;-52
2023/08/25 00:37:32;;;;;;;54.17;48.33;;;19.90;99.90;;;;;;5043543;28;20053;-53
2023/08/25 00:39:58;;;;;;;49.60;43.97;;;20.00;99.90;;;;;;5049084;28;20653;-53
2023/08/25 00:42:24;;;;;;;68.47;56.20;;;19.90;99.90;;;;;;5044794;28;20491;-54
2023/08/25 00:44:50;;;;;;;50.78;45.10;;;19.90;99.90;;;;;;5047801;28;20402;-54
2023/08/25 00:47:17;;;;;;;59.42;51.35;;;19.90;99.90;;;;;;5043277;28;20039;-55
2023/08/25 00:49:43;;;;;;;54.78;48.97;;;19.90;99.90;;;;;;5044476;28;20975;-54
2023/08/25 00:52:10;;;;;;;56.25;49.47;;;19.90;99.90;;;;;;5024742;28;20634;-56
2023/08/25 00:54:37;;;;;;;55.25;47.38;;;19.90;99.90;;;;;;5052605;28;20568;-54
2023/08/25 00:57:03;;;;;;;65.15;53.08;;;19.90;99.90;;;;;;5048300;28;20094;-50
2023/08/25 00:59:30;;;;;;;57.38;49.33;;;19.90;99.90;;;;;;5048816;28;20040;-53
2023/08/25 01:01:57;;;;;;;59.60;49.97;;;19.90;99.90;;;;;;5047285;28;20037;-52
2023/08/25 01:04:22;;;;;;;57.35;47.10;;;19.90;99.90;;;;;;5049107;28;20090;-50
2023/08/25 01:06:48;;;;;;;54.17;45.42;;;19.90;99.90;;;;;;5034263;28;20033;-51
2023/08/25 01:09:15;;;;;;;63.67;51.65;;;19.90;99.90;;;;;;5061118;28;20438;-53
2023/08/25 01:11:48;;;;;;;60.92;51.40;;;19.90;99.90;;;;;;5038352;28;20076;-55
2023/08/25 01:14:26;;;;;;;65.07;51.20;;;19.80;99.90;;;;;;5051676;28;20441;-53
2023/08/25 01:16:57;;;;;;;62.35;50.28;;;19.80;99.90;;;;;;5062577;28;20380;-54
2023/08/25 01:19:47;;;;;;;56.70;44.08;;;19.80;99.90;;;;;;5046744;28;20032;-54
2023/08/25 01:22:25;;;;;;;55.53;45.83;;;19.80;99.90;;;;;;5048070;28;20052;-53
2023/08/25 01:24:54;;;;;;;61.60;48.08;;;19.70;99.90;;;;;;5028879;28;20033;-51
2023/08/25 01:27:20;;;;;;;61.60;49.17;;;19.80;99.90;;;;;;5026985;28;20562;-52
2023/08/25 01:29:46;;;;;;;56.70;46.60;;;19.70;99.90;;;;;;5047152;28;20487;-51
2023/08/25 01:32:11;;;;;;;59.53;47.38;;;19.70;99.90;;;;;;5036551;28;20045;-54
2023/08/25 01:34:38;;;;;;;56.65;45.00;;;19.60;99.90;;;;;;5051197;28;20106;-52
2023/08/25 01:37:14;;;;;;;61.90;48.05;;;19.60;99.90;;;;;;5047937;28;20044;-54
2023/08/25 01:39:42;;;;;;;64.50;51.35;;;19.70;99.90;;;;;;5048839;28;20048;-54
2023/08/25 01:42:09;;;;;;;64.03;50.38;;;19.70;99.90;;;;;;5043193;28;20044;-53
2023/08/25 01:44:38;;;;;;;57.85;46.00;;;19.60;99.90;;;;;;5034735;28;20079;-52
2023/08/25 01:47:07;;;;;;;67.40;50.58;;;19.70;99.90;;;;;;5031713;28;20115;-51
2023/08/25 01:49:35;;;;;;;66.50;52.13;;;19.70;99.90;;;;;;5054416;28;20478;-55
2023/08/25 01:52:02;;;;;;;58.15;46.85;;;19.70;99.90;;;;;;5049004;28;20049;-55
2023/08/25 01:54:27;;;;;;;67.38;50.17;;;19.60;99.90;;;;;;5051903;28;20119;-55
2023/08/25 01:56:53;;;;;;;67.82;51.30;;;19.70;99.90;;;;;;5047776;28;20128;-54
2023/08/25 01:59:19;;;;;;;69.13;52.72;;;19.70;99.90;;;;;;5050076;28;20496;-53
2023/08/25 02:01:45;;;;;;;71.70;51.75;;;19.70;99.90;;;;;;5050329;28;20049;-50
2023/08/25 02:04:10;;;;;;;65.38;51.72;;;19.70;99.90;;;;;;5044524;28;20103;-53
2023/08/25 02:06:36;;;;;;;65.00;49.35;;;19.70;99.90;;;;;;5047156;28;20041;-53
2023/08/25 02:09:03;;;;;;;61.03;47.10;;;19.60;99.90;;;;;;5047687;28;20567;-53
2023/08/25 02:11:28;;;;;;;63.45;46.78;;;19.60;99.90;;;;;;5042477;28;20520;-53
2023/08/25 02:13:54;;;;;;;67.47;51.60;;;19.70;99.90;;;;;;5043958;28;20037;-54
2023/08/25 02:16:20;;;;;;;67.75;50.20;;;19.70;99.90;;;;;;5046672;28;20432;-54
2023/08/25 02:18:45;;;;;;;63.63;47.17;;;19.70;99.90;;;;;;5045938;28;20036;-54
2023/08/25 02:21:11;;;;;;;58.60;46.42;;;19.70;99.90;;;;;;5046224;28;20032;-54
2023/08/25 02:23:37;;;;;;;71.53;50.28;;;19.70;99.90;;;;;;5031339;28;20035;-54
2023/08/25 02:26:02;;;;;;;63.65;46.40;;;19.60;99.90;;;;;;5062736;28;20488;-50
2023/08/25 02:28:28;;;;;;;56.10;42.45;;;19.60;99.90;;;;;;5046983;28;20083;-51
2023/08/25 02:30:54;;;;;;;69.82;51.30;;;19.60;99.90;;;;;;5045941;28;20451;-51
2023/08/25 02:33:20;;;;;;;68.05;50.25;;;19.60;99.90;;;;;;5043064;28;20036;-52
2023/08/25 02:35:46;;;;;;;66.95;48.92;;;19.60;99.90;;;;;;5046261;28;20446;-50
2023/08/25 02:38:12;;;;;;;71.05;49.22;;;19.50;99.90;;;;;;5039633;28;20049;-51
2023/08/25 02:40:37;;;;;;;73.43;54.03;;;19.50;99.90;;;;;;5036538;28;20400;-51
2023/08/25 02:43:05;;;;;;;68.82;50.00;;;19.50;99.90;;;;;;5047130;28;20044;-50
2023/08/25 02:45:35;;;;;;;67.90;48.90;;;19.50;99.90;;;;;;5028963;28;20561;-53
2023/08/25 02:48:01;;;;;;;68.20;48.88;;;19.50;99.90;;;;;;5040487;28;20120;-53
2023/08/25 02:50:27;;;;;;;84.13;57.38;;;19.50;99.90;;;;;;5043791;28;20128;-51
2023/08/25 02:52:53;;;;;;;77.00;54.00;;;19.50;99.90;;;;;;5042405;28;20040;-53
2023/08/25 02:55:21;;;;;;;74.97;53.45;;;19.50;99.90;;;;;;5040041;28;20147;-55
2023/08/25 02:57:47;;;;;;;69.15;48.13;;;19.50;99.90;;;;;;5023422;28;20114;-52
2023/08/25 03:00:16;;;;;;;74.90;53.22;;;19.50;99.90;;;;;;5044041;28;20041;-53
2023/08/25 03:02:42;;;;;;;79.38;52.05;;;19.50;99.90;;;;;;5046446;28;20032;-51
2023/08/25 03:05:11;;;;;;;68.95;47.70;;;19.60;99.90;;;;;;5044640;28;20923;-50
2023/08/25 03:07:36;;;;;;;75.35;53.20;;;19.50;99.90;;;;;;5045662;28;20045;-53
2023/08/25 03:10:02;;;;;;;71.00;50.65;;;19.60;99.90;;;;;;5048106;28;20033;-53
2023/08/25 03:12:28;;;;;;;70.63;48.47;;;19.60;99.90;;;;;;5043224;28;20430;-51
2023/08/25 03:14:54;;;;;;;86.50;56.75;;;19.60;99.90;;;;;;5044684;28;20032;-51
2023/08/25 03:17:21;;;;;;;70.53;50.42;;;19.60;99.90;;;;;;5048609;28;20468;-50
2023/08/25 03:19:48;;;;;;;73.57;50.88;;;19.60;99.90;;;;;;5048273;28;20043;-51
2023/08/25 03:22:13;;;;;;;77.28;51.33;;;19.60;99.90;;;;;;5047836;28;20049;-54
2023/08/25 03:24:39;;;;;;;81.97;56.97;;;19.50;99.90;;;;;;5032607;28;20413;-51
2023/08/25 03:27:05;;;;;;;70.80;49.83;;;19.60;99.90;;;;;;5059460;28;20331;-54
2023/08/25 03:29:33;;;;;;;78.03;53.00;;;19.60;99.90;;;;;;5040573;28;20530;-50
2023/08/25 03:32:00;;;;;;;68.95;47.95;;;19.60;99.90;;;;;;5045532;28;20095;-49
2023/08/25 03:34:26;;;;;;;77.22;51.97;;;19.60;99.90;;;;;;5039531;28;20389;-54
2023/08/25 03:36:52;;;;;;;66.10;45.92;;;19.50;99.90;;;;;;5044669;28;20048;-50
2023/08/25 03:39:18;;;;;;;75.18;51.47;;;19.50;99.90;;;;;;5056841;28;20040;-55
2023/08/25 03:41:45;;;;;;;69.28;48.70;;;19.60;99.90;;;;;;5039226;28;20056;-50
2023/08/25 03:44:10;;;;;;;78.78;52.80;;;19.60;99.90;;;;;;5035973;28;20193;-52
2023/08/25 03:46:36;;;;;;;78.05;51.05;;;19.50;99.90;;;;;;5040021;28;20037;-52
2023/08/25 03:49:03;;;;;;;67.47;48.33;;;19.50;99.90;;;;;;5042878;28;20408;-53
2023/08/25 03:51:28;;;;;;;75.75;53.13;;;19.60;99.90;;;;;;5026001;28;20492;-52
2023/08/25 03:53:54;;;;;;;92.50;56.75;;;19.50;99.90;;;;;;5041895;28;20277;-52
2023/08/25 03:56:20;;;;;;;102.40;61.10;;;19.50;99.90;;;;;;5039337;28;20041;-55
2023/08/25 03:58:46;;;;;;;85.15;53.92;;;19.50;99.90;;;;;;5046894;28;20041;-54
2023/08/25 04:01:12;;;;;;;78.68;53.20;;;19.60;99.90;;;;;;5062061;28;20048;-53
2023/08/25 04:04:21;;;;;;;91.22;57.10;;;19.50;99.90;;;;;;5048029;28;20395;-53
2023/08/25 04:06:47;;;;;;;84.90;53.45;;;19.50;99.90;;;;;;5056953;28;20041;-53
2023/08/25 04:09:13;;;;;;;85.75;56.05;;;19.60;99.90;;;;;;5035088;28;20037;-50
2023/08/25 04:11:39;;;;;;;79.30;53.17;;;19.60;99.90;;;;;;5050764;28;20124;-51
2023/08/25 04:14:04;;;;;;;92.10;58.30;;;19.60;99.90;;;;;;5026828;28;20120;-51
2023/08/25 04:16:30;;;;;;;80.22;53.10;;;19.50;99.90;;;;;;5045266;28;20095;-52
2023/08/25 04:18:56;;;;;;;81.55;52.60;;;19.60;99.90;;;;;;5049584;28;20527;-52
2023/08/25 04:21:21;;;;;;;75.93;51.72;;;19.60;99.90;;;;;;5047933;28;20045;-53
2023/08/25 04:23:47;;;;;;;84.22;53.22;;;19.60;99.90;;;;;;5042466;28;20064;-52
2023/08/25 04:26:13;;;;;;;94.97;58.78;;;19.60;99.90;;;;;;5044906;28;20071;-54
2023/08/25 04:28:38;;;;;;;92.35;59.20;;;19.60;99.90;;;;;;5035371;28;20076;-54
2023/08/25 04:31:04;;;;;;;78.28;52.25;;;19.60;99.90;;;;;;5050656;28;20449;-54
2023/08/25 04:33:30;;;;;;;90.07;57.80;;;19.60;99.90;;;;;;5050551;28;20040;-54
2023/08/25 04:35:55;;;;;;;96.90;61.05;;;19.70;99.90;;;;;;5047383;28;20095;-53
2023/08/25 04:38:21;;;;;;;89.32;57.30;;;19.60;99.90;;;;;;5054403;28;20636;-51
2023/08/25 04:40:47;;;;;;;78.50;50.70;;;19.60;99.90;;;;;;5049667;28;20224;-51
2023/08/25 04:43:13;;;;;;;95.97;60.20;;;19.60;99.90;;;;;;5051160;28;20392;-51
2023/08/25 04:45:38;;;;;;;111.88;66.78;;;19.60;99.90;;;;;;5048675;28;20094;-52
2023/08/25 04:48:04;;;;;;;100.43;63.38;;;19.60;99.90;;;;;;5066264;28;20464;-51
2023/08/25 04:50:30;;;;;;;106.68;66.68;;;19.60;99.90;;;;;;5051834;28;20049;-50
2023/08/25 04:52:56;;;;;;;112.47;66.65;;;19.60;99.90;;;;;;5045795;28;20029;-53
2023/08/25 04:55:22;;;;;;;130.20;73.53;;;19.50;99.90;;;;;;5057747;28;20541;-53
2023/08/25 04:57:48;;;;;;;126.32;73.82;;;19.50;99.90;;;;;;5052544;28;20094;-54
2023/08/25 05:00:14;;;;;;;118.65;72.10;;;19.50;99.90;;;;;;5046803;28;20118;-53
2023/08/25 05:02:40;;;;;;;118.75;73.97;;;19.50;99.90;;;;;;5027516;28;20588;-52
2023/08/25 05:05:07;;;;;;;111.40;67.32;;;19.50;99.90;;;;;;5048220;28;20098;-52
2023/08/25 05:07:33;;;;;;;119.90;73.07;;;19.40;99.90;;;;;;5047606;28;20037;-52
2023/08/25 05:09:58;;;;;;;116.20;70.93;;;19.40;99.90;;;;;;5049914;28;20091;-49
2023/08/25 05:12:24;;;;;;;124.85;75.20;;;19.40;99.90;;;;;;5051921;28;20087;-51
2023/08/25 05:14:50;;;;;;;139.68;78.45;;;19.40;99.90;;;;;;5072082;22;20061;-61
2023/08/25 05:17:15;;;;;;;134.00;78.78;;;19.40;99.90;;;;;;5076351;28;20116;-62
2023/08/25 05:19:41;;;;;;;119.72;72.47;;;19.40;99.90;;;;;;5092511;28;20052;-61
2023/08/25 05:22:07;;;;;;;131.15;80.00;;;19.40;99.90;;;;;;5069509;28;20036;-61
2023/08/25 05:24:32;;;;;;;110.50;68.75;;;19.40;99.90;;;;;;5074429;28;20079;-62
2023/08/25 05:26:58;;;;;;;128.05;75.35;;;19.40;99.90;;;;;;5086715;28;20050;-62
2023/08/25 05:29:26;;;;;;;126.32;77.18;;;19.40;99.90;;;;;;5091329;28;20452;-62
2023/08/25 05:31:52;;;;;;;121.80;78.32;;;19.40;99.90;;;;;;5067081;28;20487;-61
2023/08/25 05:34:18;;;;;;;111.97;71.95;;;19.40;99.90;;;;;;5056651;28;20491;-62
2023/08/25 05:36:44;;;;;;;111.88;69.97;;;19.50;99.90;;;;;;5083808;28;20032;-61
2023/08/25 05:39:11;;;;;;;106.18;68.43;;;19.50;99.90;;;;;;5071354;28;20441;-61
2023/08/25 05:41:37;;;;;;;102.95;66.13;;;19.50;99.90;;;;;;5084914;28;20070;-61
2023/08/25 05:44:03;;;;;;;112.75;74.03;;;19.50;99.90;;;;;;5065205;28;20051;-62
2023/08/25 05:46:30;;;;;;;105.75;72.35;;;19.50;99.90;;;;;;5052044;28;20044;-62
2023/08/25 05:48:57;;;;;;;107.88;72.38;;;19.50;99.90;;;;;;5084681;28;20047;-62
2023/08/25 05:51:24;;;;;;;96.63;62.15;;;19.50;99.90;;;;;;5090489;28;20028;-62
2023/08/25 05:53:50;;;;;;;69.28;51.75;;;19.60;99.90;;;;;;5060849;28;20075;-62
2023/08/25 05:56:16;;;;;;;89.82;64.43;;;19.60;99.90;;;;;;5071416;28;20395;-62
2023/08/25 05:58:42;;;;;;;83.75;57.10;;;19.70;99.90;;;;;;5066178;28;20127;-62
2023/08/25 06:01:26;;;;;;;67.70;51.65;;;19.60;99.90;;;;;;5066373;28;20036;-61
2023/08/25 06:03:52;;;;;;;65.28;50.63;;;19.60;99.90;;;;;;5082133;28;20048;-61
2023/08/25 06:06:18;;;;;;;84.80;59.78;;;19.50;99.90;;;;;;5071237;28;20093;-62
2023/08/25 06:08:43;;;;;;;79.32;56.53;;;19.50;99.90;;;;;;5070756;28;20044;-61
2023/08/25 06:11:09;;;;;;;72.35;52.80;;;19.50;99.90;;;;;;5078966;28;20036;-62
2023/08/25 06:13:35;;;;;;;70.68;51.85;;;19.50;99.90;;;;;;5087274;28;20169;-61
2023/08/25 06:16:01;;;;;;;62.58;46.65;;;19.50;99.90;;;;;;5049477;28;20570;-62
2023/08/25 06:18:27;;;;;;;70.07;51.90;;;19.60;99.90;;;;;;5081605;28;20063;-62
2023/08/25 06:20:52;;;;;;;57.53;47.22;;;19.60;99.90;;;;;;5081679;28;20482;-61
2023/08/25 06:23:19;;;;;;;60.28;46.70;;;19.60;99.90;;;;;;5064250;28;20079;-62
2023/08/25 06:25:45;;;;;;;55.92;43.55;;;19.60;99.90;;;;;;5059935;28;20491;-62
2023/08/25 06:28:12;;;;;;;55.35;43.35;;;19.60;99.90;;;;;;5088388;28;20050;-62
2023/08/25 06:30:41;;;;;;;52.97;39.10;;;19.60;99.90;;;;;;5080146;28;20518;-61
2023/08/25 06:33:10;;;;;;;50.45;38.83;;;19.60;99.90;;;;;;5085422;28;20048;-61
2023/08/25 06:35:39;;;;;;;46.80;36.92;;;19.60;99.90;;;;;;5050621;28;20078;-62
2023/08/25 06:38:05;;;;;;;49.17;36.47;;;19.60;99.90;;;;;;5063958;28;20056;-61
2023/08/25 06:40:33;;;;;;;47.22;31.63;;;19.60;99.90;;;;;;5048696;28;20044;-63
2023/08/25 06:43:02;;;;;;;40.17;32.13;;;19.60;99.90;;;;;;5052162;28;20048;-62
2023/08/25 06:45:29;;;;;;;38.33;28.80;;;19.60;99.90;;;;;;5055729;28;20036;-62
2023/08/25 06:47:55;;;;;;;34.67;27.75;;;19.60;99.90;;;;;;5063739;28;20051;-62
2023/08/25 06:50:22;;;;;;;37.80;29.02;;;19.60;99.90;;;;;;5050647;28;20037;-62
2023/08/25 06:52:47;;;;;;;35.40;26.05;;;19.60;99.90;;;;;;5082126;28;20055;-62
2023/08/25 06:55:16;;;;;;;30.55;24.63;;;19.70;99.90;;;;;;5085096;28;20032;-62
2023/08/25 06:57:42;;;;;;;39.00;27.15;;;19.70;99.90;;;;;;5069034;28;20047;-62
2023/08/25 07:00:09;;;;;;;30.65;23.52;;;19.70;99.90;;;;;;5064569;28;20367;-62
2023/08/25 07:02:36;;;;;;;29.63;24.85;;;19.70;99.90;;;;;;5061589;28;20403;-61
2023/08/25 07:05:02;;;;;;;30.88;25.38;;;19.70;99.90;;;;;;5076944;28;20036;-62
2023/08/25 07:07:28;;;;;;;29.35;21.88;;;19.80;99.90;;;;;;5064710;28;20414;-62
2023/08/25 07:09:53;;;;;;;32.20;24.10;;;19.80;99.90;;;;;;5061316;28;20048;-62
2023/08/25 07:12:19;;;;;;;28.48;21.77;;;19.80;99.90;;;;;;5082082;28;20519;-62
2023/08/25 07:14:45;;;;;;;24.02;19.30;;;19.90;99.90;;;;;;5062262;28;20048;-62
2023/08/25 07:17:11;;;;;;;21.63;16.48;;;19.90;99.90;;;;;;5087189;28;20394;-62
2023/08/25 07:19:37;;;;;;;19.75;15.27;;;19.90;99.90;;;;;;5082017;28;20133;-62
2023/08/25 07:22:02;;;;;;;22.77;17.90;;;19.90;99.90;;;;;;5064761;28;20039;-61
2023/08/25 07:24:28;;;;;;;23.85;17.75;;;20.00;99.90;;;;;;5050938;28;20047;-61
2023/08/25 07:26:54;;;;;;;23.13;17.88;;;20.00;99.90;;;;;;5069778;28;20040;-62
2023/08/25 07:29:20;;;;;;;16.40;14.48;;;20.00;99.90;;;;;;5062407;28;20036;-61
2023/08/25 07:31:45;;;;;;;24.58;16.67;;;20.00;99.90;;;;;;5062914;28;20036;-62
2023/08/25 07:34:11;;;;;;;19.67;14.43;;;20.10;99.90;;;;;;5064007;28;20647;-62
2023/08/25 07:36:38;;;;;;;16.17;14.20;;;20.10;99.90;;;;;;5077164;28;20040;-62
2023/08/25 07:39:04;;;;;;;21.65;15.13;;;20.10;99.90;;;;;;5081777;28;20150;-62
2023/08/25 07:41:30;;;;;;;23.98;17.23;;;20.20;99.90;;;;;;5079398;28;20068;-61
2023/08/25 07:43:56;;;;;;;19.73;14.35;;;20.20;99.90;;;;;;5063639;28;20040;-62
2023/08/25 07:46:22;;;;;;;19.33;14.93;;;20.30;99.90;;;;;;5077721;28;20032;-62
2023/08/25 07:48:47;;;;;;;22.33;16.88;;;20.20;99.90;;;;;;5056624;28;20044;-62
2023/08/25 07:51:13;;;;;;;22.50;17.48;;;20.30;99.90;;;;;;5076684;28;20044;-62
2023/08/25 07:53:39;;;;;;;25.83;18.55;;;20.30;99.90;;;;;;5056852;28;20048;-62
2023/08/25 07:56:05;;;;;;;23.95;18.92;;;20.40;99.90;;;;;;5080580;28;20036;-61
2023/08/25 07:58:31;;;;;;;22.58;17.33;;;20.40;99.90;;;;;;5062134;28;20058;-62
2023/08/25 08:00:56;;;;;;;25.70;18.65;;;20.40;99.90;;;;;;5061309;28;20032;-61
2023/08/25 08:03:22;;;;;;;25.38;20.42;;;20.40;99.90;;;;;;5059289;28;20051;-62
2023/08/25 08:05:48;;;;;;;28.30;21.88;;;20.50;99.90;;;;;;5063242;28;20036;-62
2023/08/25 08:08:14;;;;;;;28.08;22.77;;;20.60;99.90;;;;;;5059481;28;22700;-62
2023/08/25 08:10:39;;;;;;;22.17;19.73;;;20.60;99.90;;;;;;5059372;28;20137;-61
2023/08/25 08:13:06;;;;;;;22.77;18.63;;;20.60;99.90;;;;;;5061170;28;20051;-62
2023/08/25 08:15:32;;;;;;;19.98;17.25;;;20.60;99.90;;;;;;5057991;28;20054;-62
2023/08/25 08:18:00;;;;;;;26.15;19.80;;;20.60;99.90;;;;;;5060245;28;20040;-62
2023/08/25 08:20:27;;;;;;;24.10;18.00;;;20.70;99.90;;;;;;5075966;28;20036;-62
2023/08/25 08:22:53;;;;;;;19.23;16.23;;;20.70;99.90;;;;;;5045089;28;20126;-62
2023/08/25 08:25:19;;;;;;;21.10;16.98;;;20.70;99.90;;;;;;5038326;28;20043;-62
2023/08/25 08:27:45;;;;;;;24.80;18.73;;;20.80;99.90;;;;;;5046080;28;20043;-62
2023/08/25 08:30:12;;;;;;;24.63;17.20;;;20.80;99.90;;;;;;5076992;28;20032;-62
2023/08/25 08:32:39;;;;;;;23.88;18.23;;;20.80;99.90;;;;;;5062697;28;20278;-62
2023/08/25 08:35:08;;;;;;;24.70;19.85;;;20.80;99.90;;;;;;5061535;28;20041;-62
2023/08/25 08:37:35;;;;;;;35.58;22.05;;;20.80;99.90;;;;;;5061137;28;20051;-62
2023/08/25 08:40:01;;;;;;;25.58;19.02;;;20.80;99.90;;;;;;5063266;28;20036;-62
2023/08/25 08:42:28;;;;;;;25.67;17.73;;;20.80;99.90;;;;;;5062821;28;20052;-62
2023/08/25 08:44:56;;;;;;;26.10;20.67;;;20.80;99.90;;;;;;5060319;28;20044;-62
2023/08/25 08:47:22;;;;;;;27.13;20.52;;;20.90;99.90;;;;;;5059788;28;20048;-62
2023/08/25 08:49:50;;;;;;;23.27;20.08;;;20.90;99.90;;;;;;5076600;28;20464;-62
2023/08/25 08:52:17;;;;;;;21.95;17.27;;;21.00;99.90;;;;;;5063769;28;20119;-62
2023/08/25 08:54:44;;;;;;;21.70;18.88;;;20.90;99.90;;;;;;5064606;28;20048;-62
2023/08/25 08:57:11;;;;;;;21.83;17.33;;;21.00;99.90;;;;;;5076666;28;20048;-62
2023/08/25 08:59:37;;;;;;;24.23;17.35;;;20.90;99.90;;;;;;5057215;28;20036;-63
2023/08/25 09:02:04;;;;;;;23.20;16.83;;;20.90;99.90;;;;;;5078636;28;20036;-64
2023/08/25 09:04:30;;;;;;;23.23;18.17;;;21.10;99.90;;;;;;5054481;28;20056;-64
2023/08/25 09:06:58;;;;;;;24.60;19.00;;;21.20;99.90;;;;;;5062634;28;20032;-65
2023/08/25 09:09:24;;;;;;;21.30;17.02;;;21.40;99.90;;;;;;5058264;28;20495;-61
2023/08/25 09:11:50;;;;;;;23.23;17.75;;;21.50;99.90;;;;;;5060972;28;20040;-63
2023/08/25 09:14:27;;;;;;;30.10;17.92;;;21.70;99.90;;;;;;5064273;28;20040;-63
2023/08/25 09:16:59;;;;;;;21.27;18.27;;;21.80;99.90;;;;;;5084178;28;20652;-68
2023/08/25 09:19:32;;;;;;;22.83;17.05;;;21.90;99.90;;;;;;5083955;28;20047;-64
2023/08/25 09:21:59;;;;;;;17.85;14.98;;;22.10;99.90;;;;;;5066501;28;20395;-63
2023/08/25 09:24:24;;;;;;;21.42;16.42;;;22.20;99.90;;;;;;5079774;28;20655;-63
2023/08/25 09:26:51;;;;;;;30.52;17.98;;;22.30;99.90;;;;;;5061863;28;20131;-64
2023/08/25 09:29:17;;;;;;;25.45;15.65;;;22.30;99.90;;;;;;5065100;28;20056;-64
2023/08/25 09:31:44;;;;;;;18.67;14.25;;;22.30;99.90;;;;;;5061423;28;20556;-64
2023/08/25 09:34:13;;;;;;;21.35;16.60;;;22.20;99.90;;;;;;5082772;28;20043;-64
2023/08/25 09:36:56;;;;;;;19.52;14.50;;;22.10;99.90;;;;;;5045890;28;20047;-65
2023/08/25 09:39:22;;;;;;;19.92;15.65;;;22.10;99.90;;;;;;5078883;28;20032;-62
2023/08/25 09:41:49;;;;;;;17.27;14.02;;;22.20;99.90;;;;;;5081610;28;20068;-62
2023/08/25 09:44:16;;;;;;;18.95;13.35;;;22.20;99.90;;;;;;5066175;28;20047;-62
2023/08/25 09:46:44;;;;;;;19.92;14.15;;;22.20;99.90;;;;;;5076967;28;20032;-63
2023/08/25 09:49:12;;;;;;;19.38;14.13;;;22.20;99.90;;;;;;5083015;28;20040;-63
2023/08/25 09:51:41;;;;;;;21.85;15.00;;;22.30;99.90;;;;;;5069921;28;20040;-63
2023/08/25 09:54:10;;;;;;;20.80;15.85;;;22.30;99.90;;;;;;5084865;28;20051;-63
2023/08/25 09:56:37;;;;;;;20.88;14.95;;;22.50;99.90;;;;;;5068332;28;20052;-63
2023/08/25 09:59:04;;;;;;;20.25;16.83;;;22.50;99.90;;;;;;5069946;28;20427;-63
2023/08/25 10:01:32;;;;;;;22.15;17.40;;;22.60;99.90;;;;;;5066952;28;20051;-63
2023/08/25 10:03:59;;;;;;;21.40;16.67;;;22.70;99.90;;;;;;5053165;28;20044;-63
2023/08/25 10:06:25;;;;;;;24.70;18.13;;;22.70;99.90;;;;;;5073283;28;20101;-63
2023/08/25 10:08:51;;;;;;;23.65;18.15;;;22.80;99.90;;;;;;5088476;28;20040;-63
2023/08/25 10:11:19;;;;;;;25.38;19.20;;;22.80;99.90;;;;;;5069609;28;20306;-63
2023/08/25 10:13:51;;;;;;;23.35;19.70;;;22.90;99.90;;;;;;5090728;28;20121;-62
2023/08/25 10:16:19;;;;;;;25.52;20.15;;;23.00;99.90;;;;;;5068062;28;20065;-63
2023/08/25 10:18:45;;;;;;;25.05;20.08;;;23.10;99.90;;;;;;5057803;28;20231;-63
2023/08/25 10:21:14;;;;;;;24.85;18.38;;;23.10;99.90;;;;;;5046571;28;20100;-63
2023/08/25 10:23:42;;;;;;;24.25;18.45;;;23.20;99.90;;;;;;5052643;28;20052;-63
2023/08/25 10:26:09;;;;;;;25.20;20.55;;;23.20;99.90;;;;;;5063776;28;20040;-63
2023/08/25 10:28:36;;;;;;;26.98;21.33;;;23.20;99.90;;;;;;5061091;28;20559;-62
2023/08/25 10:31:04;;;;;;;28.45;21.77;;;23.30;99.90;;;;;;5077508;28;20043;-63
2023/08/25 10:33:49;;;;;;;25.95;20.10;;;23.30;99.90;;;;;;5061479;28;20048;-63
2023/08/25 10:36:19;;;;;;;30.65;22.23;;;23.30;99.90;;;;;;5080759;28;20040;-62
2023/08/25 10:38:54;;;;;;;27.90;23.13;;;23.30;99.90;;;;;;5045502;28;20058;-63
2023/08/25 10:41:23;;;;;;;28.55;22.42;;;23.40;99.90;;;;;;5076722;28;20044;-61
2023/08/25 10:43:53;;;;;;;24.65;21.15;;;23.50;99.90;;;;;;5050441;28;20048;-63
2023/08/25 10:46:20;;;;;;;26.27;21.33;;;23.50;99.90;;;;;;5042641;28;20115;-62
2023/08/25 10:48:48;;;;;;;27.52;19.58;;;23.40;99.90;;;;;;5059140;28;20101;-63
2023/08/25 10:51:21;;;;;;;24.45;18.27;;;23.30;99.90;;;;;;5046257;28;20067;-63
2023/08/25 10:53:50;;;;;;;23.23;19.45;;;23.30;99.90;;;;;;5063705;28;20173;-63
2023/08/25 10:56:23;;;;;;;24.00;19.25;;;23.00;99.90;;;;;;5063328;28;20097;-63
2023/08/25 10:59:07;;;;;;;23.30;17.33;;;22.90;99.90;;;;;;5059450;28;20693;-63
2023/08/25 11:01:42;;;;;;;23.65;18.50;;;22.80;99.90;;;;;;5059772;28;20394;-64
2023/08/25 11:04:19;;;;;;;23.38;18.27;;;22.70;99.90;;;;;;5059448;28;20052;-63
2023/08/25 11:06:48;;;;;;;19.73;16.00;;;22.60;99.90;;;;;;5074255;28;20064;-62
2023/08/25 11:09:20;;;;;;;23.83;17.65;;;22.60;99.90;;;;;;5057452;28;20036;-62
2023/08/25 11:11:54;;;;;;;19.27;14.82;;;22.60;99.90;;;;;;5064993;28;20040;-63
2023/08/25 11:14:20;;;;;;;28.60;19.45;;;22.60;99.90;;;;;;5060771;28;20070;-62
2023/08/25 11:16:48;;;;;;;23.02;16.88;;;22.60;99.90;;;;;;5065192;28;20070;-63
2023/08/25 11:19:14;;;;;;;25.60;17.70;;;22.60;99.90;;;;;;5061715;28;20546;-63
2023/08/25 11:21:39;;;;;;;25.50;18.90;;;22.70;99.90;;;;;;5047397;28;20127;-62
2023/08/25 11:24:05;;;;;;;25.50;18.55;;;22.70;99.90;;;;;;5059528;28;20044;-62
2023/08/25 11:26:34;;;;;;;24.33;17.88;;;22.70;99.90;;;;;;5063147;28;20117;-62
2023/08/25 11:29:00;;;;;;;22.63;16.58;;;22.80;99.90;;;;;;5081491;28;20028;-63
2023/08/25 11:31:26;;;;;;;30.25;18.88;;;22.80;99.90;;;;;;5061427;28;20040;-62
2023/08/25 11:33:55;;;;;;;26.80;18.80;;;22.80;99.90;;;;;;5062201;28;20044;-63
2023/08/25 11:36:27;;;;;;;28.90;19.42;;;22.70;99.90;;;;;;5062497;28;20051;-63
2023/08/25 11:38:52;;;;;;;22.60;18.25;;;22.70;99.90;;;;;;5040369;28;20131;-66
2023/08/25 11:41:18;;;;;;;27.77;17.17;;;22.60;99.90;;;;;;5058432;28;20036;-62
2023/08/25 11:43:48;;;;;;;27.30;19.30;;;22.60;99.90;;;;;;5046367;28;20588;-63
2023/08/25 11:46:15;;;;;;;22.17;18.30;;;22.50;99.90;;;;;;5064155;28;20040;-61
2023/08/25 11:48:41;;;;;;;23.08;18.83;;;22.50;99.90;;;;;;5078163;28;20058;-62
2023/08/25 11:51:15;;;;;;;28.27;19.88;;;22.50;99.90;;;;;;5065716;28;20045;-62
2023/08/25 11:53:42;;;;;;;27.80;19.65;;;22.50;99.90;;;;;;5050784;28;20046;-63
2023/08/25 11:56:14;;;;;;;25.90;17.58;;;22.50;99.90;;;;;;5058289;28;20119;-62
2023/08/25 11:58:40;;;;;;;29.67;21.20;;;22.50;99.90;;;;;;5065262;28;20123;-63
2023/08/25 12:01:11;;;;;;;26.67;19.55;;;22.50;99.90;;;;;;5042618;28;20170;-63
2023/08/25 12:03:38;;;;;;;28.75;18.25;;;22.50;99.90;;;;;;5063026;28;20048;-64
2023/08/25 12:06:06;;;;;;;26.55;19.08;;;22.50;99.90;;;;;;5044811;28;20036;-64
2023/08/25 12:08:36;;;;;;;22.52;19.90;;;22.60;99.90;;;;;;5049732;28;20739;-63
2023/08/25 12:11:02;;;;;;;22.20;18.25;;;22.60;99.90;;;;;;5052706;28;20692;-64
2023/08/25 12:13:33;;;;;;;23.52;17.00;;;22.60;99.90;;;;;;5063118;28;20694;-64
2023/08/25 12:15:59;;;;;;;27.55;20.63;;;22.70;99.90;;;;;;5072804;28;20059;-64
2023/08/25 12:18:41;;;;;;;24.58;19.08;;;22.70;99.90;;;;;;5067724;28;20441;-63
2023/08/25 12:21:07;;;;;;;31.15;22.50;;;22.70;99.90;;;;;;5082446;28;20040;-63
2023/08/25 12:23:35;;;;;;;26.77;20.88;;;22.70;99.90;;;;;;5064224;28;20545;-63
2023/08/25 12:26:06;;;;;;;30.63;20.25;;;22.60;99.90;;;;;;5062371;28;20047;-62